Time;durP1;ratioP1;P1;durP2;ratioP2;P2;SDS_P1;SDS_P2;PMS_P1;PMS_P2;Temp;Humidity;BMP_temperature;BMP_pressure;BME280_temperature;BME280_humidity;BME280_pressure;Samples;Min_cycle;Max_cycle;Signal;HPM_P1;HPM_P2
2022/06/29 00:04:28;;;;;;;2.05;1.85;;;;;;;20.82;60.30;100123.84;10386352;28;20042;-71
2022/06/29 00:09:29;;;;;;;2.50;2.30;;;;;;;20.75;60.05;100114.53;10386514;28;20041;-71
2022/06/29 00:14:31;;;;;;;1.70;1.60;;;;;;;20.67;61.10;100116.91;10386379;28;20430;-71
2022/06/29 00:19:33;;;;;;;1.73;1.63;;;;;;;20.58;61.67;100104.22;10386386;28;20145;-71
2022/06/29 00:24:35;;;;;;;1.38;1.27;;;;;;;20.57;60.97;100100.72;10385593;28;20064;-71
2022/06/29 00:29:37;;;;;;;1.80;1.45;;;;;;;20.48;60.67;100104.03;10382275;28;20056;-71
2022/06/29 00:34:38;;;;;;;1.40;1.40;;;;;;;20.55;60.79;100101.81;10382630;28;20034;-71
2022/06/29 00:39:40;;;;;;;1.30;1.30;;;;;;;20.63;59.78;100116.31;10382590;28;20046;-72
2022/06/29 00:44:42;;;;;;;1.65;1.42;;;;;;;20.58;60.49;100123.78;10381974;28;20519;-72
2022/06/29 00:49:43;;;;;;;1.50;1.40;;;;;;;20.68;60.35;100132.00;10383399;28;20048;-72
2022/06/29 00:54:51;;;;;;;1.75;1.50;;;;;;;20.78;61.08;100129.50;10382493;28;20034;-72
2022/06/29 00:59:58;;;;;;;1.70;1.60;;;;;;;20.87;60.76;100142.19;10385844;28;20060;-72
2022/06/29 01:05:03;;;;;;;3.95;1.83;;;;;;;20.72;61.56;100145.97;10383833;28;20428;-72
2022/06/29 01:10:05;;;;;;;1.92;1.80;;;;;;;20.71;62.29;100145.09;10384344;28;20407;-72
2022/06/29 01:15:09;;;;;;;1.90;1.80;;;;;;;20.71;62.29;100144.25;10365510;28;20037;-72
2022/06/29 01:20:12;;;;;;;2.30;1.70;;;;;;;20.95;62.08;100149.66;10382731;28;20116;-72
2022/06/29 01:25:13;;;;;;;2.03;1.52;;;;;;;20.84;62.58;100148.59;10383123;28;20033;-72
2022/06/29 01:30:15;;;;;;;2.25;2.15;;;;;;;20.81;62.91;100146.19;10382155;28;20052;-72
2022/06/29 01:35:17;;;;;;;2.35;2.25;;;;;;;20.77;63.26;100143.84;10379939;28;20066;-72
2022/06/29 01:40:19;;;;;;;2.60;2.17;;;;;;;20.79;62.62;100125.88;10380808;28;20073;-72
2022/06/29 01:45:21;;;;;;;2.00;1.90;;;;;;;20.72;63.38;100121.91;10383437;28;20073;-72
2022/06/29 01:50:22;;;;;;;2.40;2.20;;;;;;;20.77;63.42;100120.66;10380709;28;20046;-71
2022/06/29 01:55:24;;;;;;;2.05;1.95;;;;;;;20.66;65.17;100121.41;10382588;28;20124;-72
2022/06/29 02:00:26;;;;;;;2.80;2.60;;;;;;;20.58;66.18;100118.44;10380970;28;20045;-73
2022/06/29 02:05:28;;;;;;;2.53;2.42;;;;;;;20.41;68.21;100106.28;10381900;28;20044;-73
2022/06/29 02:10:30;;;;;;;2.75;2.55;;;;;;;20.24;68.88;100105.78;10380050;28;20056;-73
2022/06/29 02:15:31;;;;;;;2.83;2.63;;;;;;;20.12;69.30;100100.31;10378085;28;20136;-73
2022/06/29 02:20:33;;;;;;;2.45;2.35;;;;;;;20.16;69.48;100101.81;10380491;28;20121;-73
2022/06/29 02:25:35;;;;;;;3.40;3.13;;;;;;;20.21;68.69;100096.16;10378957;28;20045;-73
2022/06/29 02:35:57;;;;;;;2.25;2.15;;;;;;;20.33;67.08;100086.44;10377310;28;20128;-73
2022/06/29 02:40:59;;;;;;;2.30;2.15;;;;;;;20.46;65.88;100083.75;10379575;28;20074;-73
2022/06/29 02:46:00;;;;;;;2.38;2.20;;;;;;;20.39;65.95;100078.81;10379049;28;20441;-74
2022/06/29 02:51:02;;;;;;;7.25;2.15;;;;;;;20.37;66.29;100079.91;10380529;28;20065;-73
2022/06/29 02:56:04;;;;;;;2.92;2.22;;;;;;;20.46;66.09;100079.25;10378083;28;20491;-73
2022/06/29 03:01:06;;;;;;;2.80;2.60;;;;;;;20.39;66.59;100078.81;10378209;28;20116;-73
2022/06/29 03:06:08;;;;;;;2.55;2.35;;;;;;;20.30;66.79;100075.97;10377443;28;20068;-73
2022/06/29 03:11:11;;;;;;;2.25;2.13;;;;;;;20.23;67.38;100072.00;10378871;28;20411;-74
2022/06/29 03:16:13;;;;;;;2.85;2.65;;;;;;;20.29;67.33;100087.63;10378470;28;20117;-74
2022/06/29 03:21:15;;;;;;;2.85;2.65;;;;;;;20.13;68.98;100086.00;10375619;28;20499;-73
2022/06/29 03:26:18;;;;;;;2.88;2.67;;;;;;;20.12;68.83;100078.97;10379022;28;20052;-73
2022/06/29 03:31:20;;;;;;;3.38;3.10;;;;;;;20.42;67.90;100086.63;10377336;28;20528;-74
2022/06/29 03:36:21;;;;;;;2.83;2.63;;;;;;;20.49;67.87;100083.53;10379289;28;20046;-73
2022/06/29 03:41:23;;;;;;;3.35;3.13;;;;;;;20.42;68.41;100067.09;10378205;28;20046;-73
2022/06/29 03:46:25;;;;;;;3.65;2.95;;;;;;;20.34;68.98;100064.97;10377919;28;20491;-73
2022/06/29 03:51:27;;;;;;;3.17;2.97;;;;;;;20.52;69.03;100057.47;10378419;28;20042;-72
2022/06/29 03:56:29;;;;;;;3.72;3.53;;;;;;;20.47;69.41;100056.91;10377560;28;20048;-73
2022/06/29 04:01:30;;;;;;;3.97;3.70;;;;;;;20.38;70.56;100065.59;10377038;28;20042;-72
2022/06/29 04:06:32;;;;;;;6.13;3.78;;;;;;;20.22;71.31;100065.81;10376469;28;20403;-73
2022/06/29 04:11:49;;;;;;;4.55;4.20;;;;;;;20.29;71.92;100066.25;10379353;28;20046;-73
2022/06/29 04:16:52;;;;;;;4.50;4.10;;;;;;;20.43;71.46;100066.13;10376836;28;20096;-73
2022/06/29 04:21:54;;;;;;;4.15;3.88;;;;;;;20.52;72.02;100060.13;10377822;28;20046;-73
2022/06/29 04:26:56;;;;;;;7.10;4.25;;;;;;;20.45;73.02;100060.66;10375603;28;20049;-73
2022/06/29 04:31:57;;;;;;;4.45;4.25;;;;;;;20.48;73.43;100053.31;10374750;28;20046;-73
2022/06/29 04:36:59;;;;;;;6.00;5.63;;;;;;;20.25;75.31;100057.59;10374717;28;20137;-73
2022/06/29 04:42:01;;;;;;;5.53;5.22;;;;;;;20.19;75.86;100060.72;10382122;28;20050;-72
2022/06/29 04:47:03;;;;;;;5.97;5.57;;;;;;;20.11;77.10;100063.94;10382730;28;20046;-73
2022/06/29 04:52:05;;;;;;;5.80;5.50;;;;;;;20.11;77.87;100061.25;10382326;28;20046;-73
2022/06/29 04:57:08;;;;;;;5.68;5.38;;;;;;;19.96;79.40;100058.81;10381722;28;20077;-73
2022/06/29 05:02:10;;;;;;;6.85;6.45;;;;;;;20.19;78.95;100066.06;10384059;28;20088;-73
2022/06/29 05:07:12;;;;;;;5.97;5.57;;;;;;;20.11;79.94;100074.59;10382110;28;20046;-73
2022/06/29 05:12:22;;;;;;;7.25;6.85;;;;;;;19.79;82.53;100073.31;10381353;28;20050;-74
2022/06/29 05:17:23;;;;;;;7.63;7.20;;;;;;;19.67;84.20;100069.72;10394196;22;20049;-69
2022/06/29 05:22:25;;;;;;;7.65;7.05;;;;;;;19.60;84.49;100068.38;10379009;28;20381;-69
2022/06/29 05:27:27;;;;;;;7.93;7.45;;;;;;;19.79;84.25;100071.53;10379488;28;20042;-69
2022/06/29 05:32:28;;;;;;;6.75;6.18;;;;;;;19.91;83.58;100070.66;10379269;28;20534;-69
2022/06/29 05:37:30;;;;;;;6.88;6.38;;;;;;;19.85;83.88;100064.91;10378604;28;20531;-69
2022/06/29 05:42:32;;;;;;;7.15;6.65;;;;;;;19.86;84.21;100063.94;10378150;28;20052;-69
2022/06/29 05:47:34;;;;;;;6.40;6.00;;;;;;;19.90;84.28;100063.63;10376763;28;20045;-69
2022/06/29 05:52:36;;;;;;;6.38;6.03;;;;;;;19.89;84.08;100064.59;10378094;28;20407;-69
2022/06/29 05:57:38;;;;;;;5.72;5.32;;;;;;;19.72;84.96;100062.25;10377692;28;20042;-69
2022/06/29 06:02:40;;;;;;;5.72;5.43;;;;;;;19.76;85.21;100070.88;10378002;28;20080;-70
2022/06/29 06:07:44;;;;;;;4.90;4.50;;;;;;;19.69;85.61;100064.25;10377178;28;20045;-70
2022/06/29 06:12:46;;;;;;;5.00;4.68;;;;;;;19.73;85.44;100060.44;10377023;28;20042;-70
2022/06/29 06:17:48;;;;;;;5.40;5.00;;;;;;;19.81;85.30;100066.09;10377390;28;20049;-70
2022/06/29 06:22:50;;;;;;;5.00;4.70;;;;;;;19.78;84.67;100066.28;10377679;28;20068;-70
2022/06/29 06:27:52;;;;;;;4.95;4.65;;;;;;;19.88;83.61;100068.22;10376935;28;20038;-70
2022/06/29 06:32:53;;;;;;;4.25;3.95;;;;;;;19.81;83.12;100079.41;10376296;28;20052;-69
2022/06/29 06:37:55;;;;;;;3.45;3.25;;;;;;;19.78;82.61;100092.97;10376169;28;20125;-70
2022/06/29 06:42:57;;;;;;;3.67;3.47;;;;;;;19.53;83.53;100099.94;10374975;28;20049;-70
2022/06/29 06:47:59;;;;;;;3.97;3.67;;;;;;;19.42;84.63;100103.31;10375920;28;20045;-70
2022/06/29 06:53:02;;;;;;;3.72;3.53;;;;;;;19.53;83.88;100096.44;10375879;28;20046;-69
2022/06/29 06:58:04;;;;;;;3.60;3.30;;;;;;;19.46;84.71;100087.97;10375625;28;20048;-70
2022/06/29 07:03:05;;;;;;;3.38;3.17;;;;;;;19.54;84.25;100079.47;10374727;28;20045;-71
2022/06/29 07:08:07;;;;;;;4.03;3.72;;;;;;;19.62;84.09;100070.03;10375442;28;20048;-70
2022/06/29 07:13:09;;;;;;;3.35;3.15;;;;;;;19.73;83.15;100050.59;10375013;28;20042;-71
2022/06/29 07:18:10;;;;;;;3.92;3.60;;;;;;;19.70;82.91;100060.63;10375033;28;20458;-71
2022/06/29 07:23:12;;;;;;;4.40;4.10;;;;;;;19.86;82.21;100054.13;10375888;28;20038;-71
2022/06/29 07:28:14;;;;;;;4.18;3.88;;;;;;;19.88;81.80;100073.56;10373417;28;20462;-71
2022/06/29 07:33:15;;;;;;;4.75;4.45;;;;;;;19.74;82.61;100068.31;10374022;28;20155;-69
2022/06/29 07:38:19;;;;;;;4.57;4.28;;;;;;;19.70;83.15;100069.50;10374977;28;20100;-69
2022/06/29 07:43:20;;;;;;;5.32;4.82;;;;;;;19.93;81.96;100075.91;10374010;28;20116;-69
2022/06/29 07:48:22;;;;;;;4.35;4.10;;;;;;;19.98;82.02;100079.09;10374486;28;20068;-69
2022/06/29 07:53:24;;;;;;;5.10;4.80;;;;;;;20.02;82.38;100069.91;10372784;28;20046;-69
2022/06/29 07:58:25;;;;;;;5.10;4.70;;;;;;;20.12;81.56;100060.28;10373982;28;20052;-69
2022/06/29 08:03:27;;;;;;;4.07;3.88;;;;;;;20.05;81.87;100064.34;10374028;28;20038;-69
2022/06/29 08:08:29;;;;;;;4.82;4.45;;;;;;;20.33;81.09;100070.41;10373741;28;20054;-69
2022/06/29 08:13:30;;;;;;;4.35;4.05;;;;;;;20.35;81.19;100072.00;10375375;28;20480;-69
2022/06/29 08:18:33;;;;;;;4.70;4.40;;;;;;;20.28;81.81;100070.75;10382075;28;20046;-70
2022/06/29 08:23:35;;;;;;;4.65;4.35;;;;;;;20.49;81.05;100073.69;10379973;28;20467;-70
2022/06/29 08:28:37;;;;;;;4.85;4.47;;;;;;;20.83;78.97;100082.78;10380983;28;20042;-70
2022/06/29 08:33:39;;;;;;;5.30;4.90;;;;;;;20.79;78.84;100085.78;10380909;28;20045;-68
2022/06/29 08:38:40;;;;;;;5.90;5.50;;;;;;;20.74;78.76;100082.63;10393456;28;20519;-69
2022/06/29 08:43:42;;;;;;;5.22;4.82;;;;;;;20.80;79.53;100085.66;10387600;28;20061;-69
2022/06/29 08:48:44;;;;;;;7.15;6.55;;;;;;;20.96;77.85;100069.38;10419339;28;20080;-69
2022/06/29 08:53:47;;;;;;;6.20;5.80;;;;;;;20.81;79.33;100067.84;10409376;28;20512;-69
2022/06/29 08:58:51;;;;;;;6.63;6.22;;;;;;;20.86;79.09;100060.34;10379875;28;20128;-69
2022/06/29 09:03:54;;;;;;;6.50;6.10;;;;;;;20.96;78.14;100065.84;10379616;28;20045;-68
2022/06/29 09:08:55;;;;;;;7.90;7.13;;;;;;;21.18;77.78;100060.59;10379229;28;20056;-69
2022/06/29 09:14:17;;;;;;;7.18;6.57;;;;;;;21.23;78.53;100052.22;10414426;28;20037;-69
2022/06/29 09:19:21;;;;;;;8.15;7.40;;;;;;;21.26;77.52;100062.72;10420415;28;20081;-69
2022/06/29 09:24:28;;;;;;;7.38;6.82;;;;;;;21.09;78.46;100051.44;10419450;28;20463;-69
2022/06/29 09:29:31;;;;;;;8.90;8.30;;;;;;;21.11;78.59;100049.50;10419654;28;20049;-69
2022/06/29 09:34:44;;;;;;;9.10;8.50;;;;;;;21.17;78.89;100054.41;10419286;28;20125;-69
2022/06/29 09:39:48;;;;;;;8.27;7.53;;;;;;;21.36;77.92;100055.72;10419559;28;20050;-70
2022/06/29 09:44:50;;;;;;;7.68;7.07;;;;;;;21.60;77.01;100047.63;10414661;28;20033;-69
2022/06/29 09:49:56;;;;;;;8.95;8.25;;;;;;;22.19;74.10;100041.25;10393680;28;20049;-69
2022/06/29 09:54:59;;;;;;;;;;;;;;;22.24;73.29;100052.44;10385117;28;20125;-69
2022/06/29 10:05:54;;;;;;;9.20;8.60;;;;;;;21.93;74.74;100044.13;10377412;28;20484;-70
2022/06/29 10:13:39;;;;;;;9.02;8.38;;;;;;;22.05;75.94;100032.47;10377481;28;20040;-69
2022/06/29 10:16:35;;;;;;;8.23;7.60;;;;;;;22.11;74.44;100020.41;10376667;28;20045;-69
2022/06/29 10:21:37;;;;;;;8.35;6.82;;;;;;;21.90;74.61;100002.41;10375254;28;20137;-69
2022/06/29 10:26:39;;;;;;;7.80;7.40;;;;;;;21.76;77.04;100020.53;10376518;28;20121;-69
2022/06/29 10:31:50;;;;;;;8.15;7.45;;;;;;;21.87;74.99;100023.22;10376130;28;20053;-69
2022/06/29 10:37:15;;;;;;;6.43;6.03;;;;;;;22.14;74.53;100020.22;10375230;28;20488;-69
2022/06/29 10:47:57;;;;;;;7.22;6.00;;;;;;;22.07;75.66;100017.13;10377208;28;20038;-68
2022/06/29 10:53:07;;;;;;;6.20;5.70;;;;;;;22.10;75.19;100006.19;10375899;28;20045;-69
2022/06/29 10:58:09;;;;;;;5.25;4.85;;;;;;;22.08;75.10;99994.72;10375383;28;20045;-69
2022/06/29 11:03:19;;;;;;;5.70;5.30;;;;;;;22.42;73.92;100002.75;10375409;28;20052;-69
2022/06/29 11:13:49;;;;;;;4.65;4.35;;;;;;;22.77;71.82;100007.03;10387280;23;20069;-73
2022/06/29 11:18:55;;;;;;;5.15;4.85;;;;;;;22.86;73.50;100001.75;10381860;28;20513;-74
2022/06/29 11:24:03;;;;;;;;;;;;;;;22.59;73.28;100007.59;10378320;28;20115;-74
2022/06/29 11:29:04;;;;;;;5.15;4.65;;;;;;;22.68;72.77;100000.63;10378014;28;19921;-72
2022/06/29 11:34:06;;;;;;;5.00;4.60;;;;;;;22.81;72.19;99990.59;10376900;28;20132;-72
2022/06/29 11:39:08;;;;;;;5.85;5.40;;;;;;;22.90;71.43;99986.31;10376488;28;20046;-73
2022/06/29 11:44:11;;;;;;;6.93;5.50;;;;;;;22.67;72.67;99977.50;10379402;28;20507;-73
2022/06/29 11:54:46;;;;;;;7.78;7.13;;;;;;;22.33;75.36;99969.53;10385211;28;20500;-74
2022/06/29 11:59:48;;;;;;;7.88;7.32;;;;;;;22.41;75.29;99963.56;10387627;28;20042;-73
2022/06/29 12:04:50;;;;;;;8.05;7.38;;;;;;;22.33;75.95;99971.38;10385763;28;20041;-73
2022/06/29 12:09:52;;;;;;;7.35;6.85;;;;;;;22.24;76.39;99970.28;10385641;28;20046;-74
2022/06/29 12:14:53;;;;;;;8.98;8.48;;;;;;;22.16;76.30;99962.88;10384395;28;20415;-74
2022/06/29 12:19:55;;;;;;;9.65;9.15;;;;;;;21.94;77.46;99960.19;10383516;28;20074;-74
2022/06/29 12:25:06;;;;;;;9.75;9.13;;;;;;;22.12;78.66;99956.06;10385816;28;20060;-73
2022/06/29 12:30:09;;;;;;;10.63;10.02;;;;;;;22.04;79.92;99954.94;10382446;28;20049;-73
2022/06/29 12:35:10;;;;;;;12.38;11.50;;;;;;;21.72;82.54;99954.84;10366159;28;20458;-74
2022/06/29 12:40:13;;;;;;;14.80;13.52;;;;;;;21.48;87.54;99952.31;10385695;28;20107;-74
2022/06/29 12:45:15;;;;;;;14.43;13.52;;;;;;;21.21;87.72;99953.44;10383686;28;20038;-74
2022/06/29 12:50:19;;;;;;;17.05;15.52;;;;;;;20.96;92.18;99943.78;10383821;28;20049;-74
2022/06/29 12:55:21;;;;;;;16.75;15.55;;;;;;;20.87;93.73;99941.81;10382674;28;20125;-74
2022/06/29 13:00:23;;;;;;;17.50;16.42;;;;;;;20.90;92.25;99934.41;10380433;28;20049;-75
2022/06/29 13:05:25;;;;;;;17.35;16.05;;;;;;;20.90;94.12;99909.53;10381248;28;20133;-74
2022/06/29 13:10:28;;;;;;;17.85;16.80;;;;;;;20.80;95.34;99893.31;10384088;28;20057;-74
2022/06/29 13:15:30;;;;;;;15.90;15.00;;;;;;;20.59;94.61;99889.66;10380822;28;20037;-74
2022/06/29 13:20:32;;;;;;;16.35;15.45;;;;;;;20.70;95.32;99892.34;10382351;28;20438;-73
2022/06/29 13:25:33;;;;;;;16.00;15.05;;;;;;;20.73;95.63;99900.13;10386985;28;20445;-73
2022/06/29 13:30:35;;;;;;;16.10;15.07;;;;;;;20.69;93.53;99898.66;10406776;28;20474;-73
2022/06/29 13:35:40;;;;;;;16.65;15.65;;;;;;;20.54;95.58;99887.31;10401769;28;20038;-73
2022/06/29 13:40:41;;;;;;;15.85;14.85;;;;;;;20.59;96.01;99879.81;10381121;28;20050;-73
2022/06/29 13:45:43;;;;;;;16.48;15.57;;;;;;;20.66;96.35;99885.53;10380417;28;20049;-72
2022/06/29 13:50:45;;;;;;;16.13;14.73;;;;;;;20.61;96.78;99877.84;10381529;28;20065;-72
2022/06/29 13:55:47;;;;;;;17.58;16.55;;;;;;;20.58;97.88;99870.06;10380965;28;20053;-72
2022/06/29 14:00:52;;;;;;;16.63;15.73;;;;;;;20.77;95.82;99876.72;10379003;28;20098;-72
2022/06/29 14:05:53;;;;;;;18.02;16.98;;;;;;;20.70;95.95;99875.47;10378229;28;20046;-72
2022/06/29 14:10:57;;;;;;;18.75;17.65;;;;;;;20.55;96.48;99883.69;10376650;28;20431;-73
2022/06/29 14:15:59;;;;;;;19.25;18.25;;;;;;;20.49;96.93;99889.47;10378311;28;20125;-72
2022/06/29 14:21:01;;;;;;;18.27;17.25;;;;;;;20.49;97.13;99881.44;10376608;28;20056;-73
2022/06/29 14:26:03;;;;;;;20.30;19.10;;;;;;;20.40;98.25;99896.31;10377633;28;20037;-73
2022/06/29 14:31:05;;;;;;;20.35;19.25;;;;;;;20.44;96.66;99904.94;10376883;28;20081;-72
2022/06/29 14:36:08;;;;;;;18.98;17.88;;;;;;;20.49;94.89;99909.97;10380786;28;20048;-73
2022/06/29 14:41:10;;;;;;;18.83;17.77;;;;;;;20.40;96.29;99922.16;10379325;28;20065;-73
2022/06/29 14:46:12;;;;;;;19.77;18.60;;;;;;;20.44;96.66;99914.78;10377516;28;20042;-72
2022/06/29 14:51:15;;;;;;;19.58;18.48;;;;;;;20.55;95.72;99913.06;10379305;28;20053;-72
2022/06/29 14:56:19;;;;;;;19.63;18.17;;;;;;;20.58;96.83;99902.13;10376361;28;20399;-72
2022/06/29 15:01:35;;;;;;;19.00;17.90;;;;;;;20.69;96.47;99897.81;10377960;28;20121;-70
2022/06/29 15:06:37;;;;;;;19.52;18.17;;;;;;;20.79;95.57;99877.44;10376633;28;20080;-70
2022/06/29 15:11:39;;;;;;;20.65;19.45;;;;;;;20.91;96.37;99866.66;10377827;28;20079;-70
2022/06/29 15:16:41;;;;;;;19.52;18.27;;;;;;;20.92;94.98;99849.66;10376940;28;20050;-69
2022/06/29 15:21:42;;;;;;;20.02;18.85;;;;;;;20.88;94.42;99842.84;10379199;28;20042;-70
2022/06/29 15:26:44;;;;;;;18.45;17.35;;;;;;;20.89;92.64;99851.69;10377192;28;20041;-71
2022/06/29 15:31:46;;;;;;;18.05;16.95;;;;;;;20.76;93.34;99853.59;10375906;28;20117;-69
2022/06/29 15:42:14;;;;;;;18.88;17.88;;;;;;;20.96;93.17;99836.91;10377476;28;20041;-73
2022/06/29 15:47:17;;;;;;;18.40;17.30;;;;;;;21.04;92.19;99839.81;10378079;28;20080;-73
2022/06/29 15:52:19;;;;;;;18.80;17.70;;;;;;;20.90;94.22;99827.56;10375389;28;20129;-73
2022/06/29 15:57:21;;;;;;;21.35;19.65;;;;;;;20.80;96.26;99829.22;10382655;28;20042;-73
2022/06/29 16:02:22;;;;;;;21.65;20.35;;;;;;;20.80;96.01;99820.34;10377990;28;20056;-73
2022/06/29 16:07:24;;;;;;;23.67;22.08;;;;;;;21.03;97.66;99822.09;10381358;28;20120;-72
2022/06/29 16:12:26;;;;;;;22.63;21.33;;;;;;;21.06;97.20;99810.31;10377528;28;20046;-72
2022/06/29 16:17:31;;;;;;;23.70;22.30;;;;;;;20.78;100.00;99814.28;10375761;28;20411;-72
2022/06/29 16:22:33;;;;;;;26.33;24.73;;;;;;;20.57;100.00;99790.94;10375680;28;20053;-72
2022/06/29 16:27:36;;;;;;;24.55;23.02;;;;;;;20.76;100.00;99797.53;10377516;28;20073;-71
2022/06/29 16:32:37;;;;;;;27.85;25.85;;;;;;;20.84;100.00;99787.09;10374620;28;20054;-73
2022/06/29 16:37:39;;;;;;;26.77;25.17;;;;;;;20.75;100.00;99802.00;10378575;28;20041;-72
2022/06/29 16:42:41;;;;;;;27.83;25.85;;;;;;;20.70;100.00;99800.69;10382217;28;20073;-72
2022/06/29 16:47:42;;;;;;;25.95;23.90;;;;;;;20.62;100.00;99802.09;10382879;28;20045;-73
2022/06/29 16:52:44;;;;;;;26.20;24.58;;;;;;;20.59;100.00;99804.19;10385714;28;20042;-72
2022/06/29 16:57:46;;;;;;;24.25;22.67;;;;;;;20.53;100.00;99808.16;10382588;28;20104;-73
2022/06/29 17:02:51;;;;;;;24.98;23.27;;;;;;;20.48;100.00;99802.31;10383116;28;20042;-73
2022/06/29 17:07:52;;;;;;;25.67;23.98;;;;;;;20.55;100.00;99795.56;10381485;28;20056;-73
2022/06/29 17:12:55;;;;;;;24.55;23.05;;;;;;;20.40;100.00;99799.34;10385635;28;20064;-73
2022/06/29 17:17:57;;;;;;;26.35;24.85;;;;;;;20.52;100.00;99802.94;10391649;23;20438;-69
2022/06/29 17:22:58;;;;;;;28.45;26.75;;;;;;;20.56;100.00;99791.91;10379688;28;20042;-69
2022/06/29 17:28:00;;;;;;;26.00;24.58;;;;;;;20.59;100.00;99790.84;10379036;28;20068;-69
2022/06/29 17:33:02;;;;;;;26.45;24.52;;;;;;;20.71;100.00;99797.03;10378868;28;20052;-69
2022/06/29 17:38:03;;;;;;;26.08;24.33;;;;;;;20.74;100.00;99802.16;10378272;28;20038;-70
2022/06/29 17:43:05;;;;;;;24.90;23.38;;;;;;;20.52;100.00;99798.44;10376597;28;20054;-70
2022/06/29 17:48:07;;;;;;;26.05;24.33;;;;;;;20.63;100.00;99797.66;10376605;28;20042;-70
2022/06/29 17:53:09;;;;;;;23.63;22.25;;;;;;;20.53;100.00;99789.47;10377595;28;20104;-70
2022/06/29 17:58:10;;;;;;;26.95;25.35;;;;;;;20.62;100.00;99783.41;10380721;28;20092;-71
2022/06/29 18:03:13;;;;;;;26.73;25.13;;;;;;;20.63;100.00;99777.13;10382213;28;20484;-71
2022/06/29 18:08:15;;;;;;;26.13;24.30;;;;;;;20.38;100.00;99771.94;10380592;28;20061;-71
2022/06/29 18:13:17;;;;;;;24.10;22.42;;;;;;;20.57;100.00;99774.91;10376944;28;20468;-69
2022/06/29 18:18:18;;;;;;;25.55;23.60;;;;;;;20.60;100.00;99774.69;10376454;28;20088;-71
2022/06/29 18:23:20;;;;;;;25.20;23.70;;;;;;;20.61;100.00;99779.06;10377432;28;20488;-71
2022/06/29 18:28:21;;;;;;;20.30;19.05;;;;;;;20.60;100.00;99774.69;10376632;28;20092;-71
2022/06/29 18:33:23;;;;;;;22.65;21.33;;;;;;;20.70;100.00;99772.16;10376370;28;20065;-71
2022/06/29 18:38:25;;;;;;;23.00;21.60;;;;;;;20.63;100.00;99782.47;10376151;28;20076;-70
2022/06/29 18:43:27;;;;;;;23.52;22.17;;;;;;;20.59;100.00;99781.00;10374603;28;20141;-70
2022/06/29 18:48:30;;;;;;;22.77;21.27;;;;;;;20.49;100.00;99779.16;10375741;28;20049;-70
2022/06/29 18:53:31;;;;;;;24.00;22.60;;;;;;;20.54;100.00;99783.19;10376087;28;20384;-70
2022/06/29 18:58:33;;;;;;;24.75;23.10;;;;;;;20.40;100.00;99776.16;10373693;28;20125;-70
2022/06/29 19:03:35;;;;;;;23.60;22.10;;;;;;;20.40;100.00;99770.00;10374257;28;20053;-72
2022/06/29 19:08:36;;;;;;;22.42;21.02;;;;;;;20.45;100.00;99765.13;10374501;28;20038;-71
2022/06/29 19:13:39;;;;;;;25.00;23.48;;;;;;;20.48;100.00;99756.09;10375364;28;20052;-71
2022/06/29 19:18:40;;;;;;;24.00;22.60;;;;;;;20.56;100.00;99757.19;10374906;28;20038;-70
2022/06/29 19:23:49;;;;;;;22.63;21.38;;;;;;;20.37;100.00;99765.75;10374969;28;20099;-70
2022/06/29 19:28:50;;;;;;;24.35;22.92;;;;;;;20.42;100.00;99768.06;10374868;28;20420;-70
2022/06/29 19:33:54;;;;;;;23.83;22.33;;;;;;;20.50;100.00;99772.84;10374842;28;20045;-70
2022/06/29 19:38:56;;;;;;;23.75;22.13;;;;;;;20.38;100.00;99774.59;10373141;28;20038;-70
2022/06/29 19:43:58;;;;;;;24.67;23.23;;;;;;;20.41;100.00;99766.38;10375904;28;20041;-71
2022/06/29 19:48:59;;;;;;;24.38;22.90;;;;;;;20.19;100.00;99760.94;10373391;28;20351;-71
2022/06/29 19:54:01;;;;;;;25.67;24.00;;;;;;;20.23;100.00;99770.41;10374085;28;20149;-70
2022/06/29 19:59:03;;;;;;;24.65;23.15;;;;;;;20.13;100.00;99767.59;10374667;28;20041;-71
2022/06/29 20:04:05;;;;;;;26.23;24.40;;;;;;;20.01;100.00;99765.84;10374611;28;20045;-71
2022/06/29 20:09:07;;;;;;;24.83;23.42;;;;;;;20.02;100.00;99763.09;10376455;28;20057;-71
2022/06/29 20:14:09;;;;;;;25.75;24.25;;;;;;;20.16;100.00;99762.88;10382703;28;20049;-71
2022/06/29 20:19:11;;;;;;;26.92;25.08;;;;;;;20.45;100.00;99757.13;10381325;28;20042;-70
2022/06/29 20:24:12;;;;;;;25.90;24.10;;;;;;;20.34;100.00;99749.13;10383057;28;20128;-71
2022/06/29 20:29:14;;;;;;;24.88;22.95;;;;;;;20.32;100.00;99753.69;10382091;28;20112;-71
2022/06/29 20:34:16;;;;;;;24.88;22.90;;;;;;;20.28;100.00;99762.94;10381754;28;20042;-72
2022/06/29 20:39:18;;;;;;;24.50;22.73;;;;;;;20.41;100.00;99763.69;10381792;28;20504;-70
2022/06/29 20:49:41;;;;;;;23.85;22.20;;;;;;;20.20;100.00;99752.00;10382327;28;20050;-71
2022/06/29 20:54:43;;;;;;;25.02;23.20;;;;;;;20.11;100.00;99749.06;10379954;28;20038;-71
2022/06/29 20:59:44;;;;;;;23.33;21.83;;;;;;;20.09;100.00;99745.63;10381342;28;20053;-70
2022/06/29 21:04:46;;;;;;;25.20;23.45;;;;;;;19.91;100.00;99752.34;10380063;28;20080;-70
2022/06/29 21:09:48;;;;;;;24.17;22.38;;;;;;;20.10;100.00;99757.19;10379926;28;20042;-70
2022/06/29 21:14:50;;;;;;;24.30;22.80;;;;;;;19.98;100.00;99758.09;10379705;28;20116;-70
2022/06/29 21:19:52;;;;;;;21.40;20.00;;;;;;;19.86;100.00;99760.72;10379590;28;20100;-71
2022/06/29 21:24:58;;;;;;;23.38;21.88;;;;;;;19.92;100.00;99767.38;10379701;28;20170;-70
2022/06/29 21:30:00;;;;;;;20.13;18.77;;;;;;;19.84;100.00;99773.31;10379336;28;20385;-71
2022/06/29 21:35:02;;;;;;;20.42;19.02;;;;;;;19.80;100.00;99769.19;10378978;28;20046;-71
2022/06/29 21:40:04;;;;;;;19.83;18.13;;;;;;;19.88;100.00;99764.13;10378823;28;20050;-70
2022/06/29 21:45:06;;;;;;;17.17;16.17;;;;;;;19.86;100.00;99738.53;10378791;28;20050;-71
2022/06/29 21:55:30;;;;;;;15.98;14.80;;;;;;;19.58;100.00;99740.53;10378128;28;20487;-71
2022/06/29 22:00:32;;;;;;;14.57;13.70;;;;;;;19.49;100.00;99746.56;10377872;28;20456;-71
2022/06/29 22:05:34;;;;;;;15.32;14.43;;;;;;;19.52;100.00;99734.81;10377652;28;20041;-71
2022/06/29 22:10:36;;;;;;;15.32;14.40;;;;;;;19.60;100.00;99743.09;10378115;28;20046;-71
2022/06/29 22:15:37;;;;;;;12.98;12.27;;;;;;;19.63;100.00;99751.75;10377341;28;20038;-70
2022/06/29 22:20:39;;;;;;;14.60;13.60;;;;;;;19.57;100.00;99762.84;10376327;28;20455;-71
2022/06/29 22:25:42;;;;;;;13.15;12.45;;;;;;;19.60;100.00;99765.28;10376979;28;20564;-71
2022/06/29 22:30:44;;;;;;;12.77;12.00;;;;;;;19.56;100.00;99760.28;10377440;28;20050;-71
2022/06/29 22:35:47;;;;;;;12.57;11.65;;;;;;;19.60;100.00;99745.75;10375993;28;20045;-72
2022/06/29 22:40:49;;;;;;;10.70;10.00;;;;;;;19.58;100.00;99740.53;10376301;28;20495;-71
2022/06/29 22:45:51;;;;;;;11.43;10.63;;;;;;;19.73;100.00;99733.25;10376099;28;20038;-70
2022/06/29 22:50:53;;;;;;;11.55;10.68;;;;;;;19.77;100.00;99723.22;10375712;28;20088;-71
2022/06/29 22:55:55;;;;;;;12.85;12.05;;;;;;;19.62;100.00;99707.41;10375755;28;20042;-70
2022/06/29 23:00:59;;;;;;;12.05;11.35;;;;;;;19.55;100.00;99700.78;10375683;28;20095;-71
2022/06/29 23:06:01;;;;;;;11.70;11.00;;;;;;;19.63;100.00;99706.41;10375309;28;20129;-70
2022/06/29 23:16:23;;;;;;;11.70;11.07;;;;;;;19.97;100.00;99711.91;10390038;22;20048;-75
2022/06/29 23:21:24;;;;;;;11.73;10.85;;;;;;;19.91;100.00;99699.00;10358007;28;20054;-75
2022/06/29 23:26:26;;;;;;;11.05;10.43;;;;;;;19.81;100.00;99703.34;10377681;28;20049;-75
2022/06/29 23:31:29;;;;;;;12.52;11.73;;;;;;;19.51;100.00;99717.09;10376243;28;20380;-75
2022/06/29 23:36:31;;;;;;;12.95;12.05;;;;;;;19.32;100.00;99717.63;10374683;28;20125;-76
2022/06/29 23:41:33;;;;;;;14.15;13.05;;;;;;;19.32;100.00;99722.94;10374822;28;20045;-75
2022/06/29 23:46:34;;;;;;;12.00;11.30;;;;;;;19.35;100.00;99717.41;10375200;28;20065;-75
2022/06/29 23:51:36;;;;;;;13.23;12.43;;;;;;;19.28;100.00;99716.97;10373638;28;20068;-75